Arcadia Lakes, South Carolina
Current Conditions -  °F | °C
As of 3:53 AM on Thursday 27 Nov 2014 (Local Time) from KCUB Reporting Station
Scattered Clouds Scattered Clouds  
Wind Chill: 41°   Ceiling: Unl
Heat Index: 41°   Visibility: 10mi
Dew Point: 35°   Wind: 3mph
Humidity: 79%   Direction: NA
Pressure: 30.04"   Gusts: NA
Location:  34.025°N, 80.9562°W
Report Text: KCUB 270853Z AUTO VRB03KT 10SM FEW070 SCT100 05/02 A3004 RMK AO2 SLP171 T00500017 58017
Loading
Personal Weather Stations






























Interactive Weather Map New forecast layout! Learn more

10-Day Weather Forecast

Advertisements
Track Severe Weather on mobile